ADDS METAR Data INFO
IDs: Format: Raw Decoded Include TAF

Data at: 0712 UTC 24 Jun 2018

KSFB 240653Z AUTO 19005KT 10SM CLR 26/23 A3001 RMK AO2 SLP159 T02560228
KSFB 240553Z AUTO 19006KT 10SM BKN055 26/23 A3002 RMK AO2 SLP164 T02610233 10272 20256 58003
KSFB 240453Z AUTO 18005KT 10SM CLR 26/24 A3003 RMK AO2 SLP167 T02610239 403500250
KSFB 240353Z AUTO 15006KT 10SM CLR 26/24 A3003 RMK AO2 SLP169 T02560239
KSFB 240253Z AUTO 16005KT 10SM CLR 27/23 A3003 RMK AO2 SLP167 T02670233 53014
KSFB 240153Z 18005KT 10SM CLR 27/23 A3001 RMK AO2 SLP159 T02670228
KSFB 240053Z 16006KT 10SM CLR 27/24 A3000 RMK AO2 SLP157 T02670239
KSFB 232353Z 18007KT 10SM FEW110 27/24 A2999 RMK AO2 RAB2256E52 SLP153 P0002 60002 T02720239 10350 20272 50005
KSFB 232304Z 17006KT 10SM -RA FEW075 SCT090 BKN110 27/24 A3000 RMK AO2 LTG DSNT S AND SW RAB2256 P0000 T02720239
KSFB 232253Z 18005KT 10SM VCTS FEW100 28/23 A3000 RMK AO2 LTG DSNT SW AND W TSE2155 SLP159 T02780228
KSFB 232201Z 10007KT 10SM VCTS SCT039 SCT060 28/23 A3000 RMK AO2 LTG DSNT ALQDS TSE2155 T02830228
KSFB 232153Z 09009KT 10SM TS SCT039 BKN047 BKN055 28/23 A3000 RMK AO2 LTG DSNT ALQDS TSB06 SLP157 T02830228
KSFB 232106Z VRB05KT 10SM TS SCT060 BKN080 33/22 A2997 RMK AO2 LTG DSNT ALQDS TSB06 T03280217
KSFB 232053Z 01004KT 10SM FEW055 SCT075 BKN085 33/22 A2997 RMK AO2 LTG DSNT ALQDS SLP148 T03330217 55007
KSFB 231953Z 34006KT 10SM CLR 34/21 A2995 RMK AO2 LTG DSNT ALQDS SLP141 T03390211
KSFB 231853Z 29008KT 10SM SCT049 SCT065 34/22 A2998 RMK AO2 LTG DSNT SE AND S SLP149 T03440217
KSFB 231753Z 28007KT 10SM FEW044 33/23 A2999 RMK AO2 SLP155 T03330228 10339 20267 58007
KSFB 231653Z 30008KT 10SM SCT041 BKN047 BKN070 32/24 A3001 RMK AO2 LTG DSNT SW SLP160 T03220239
KSFB 231553Z 29006KT 10SM SCT030 32/24 A3001 RMK AO2 SLP162 T03170244
KSFB 231453Z 29011KT 10SM SCT028 31/24 A3002 RMK AO2 SLP163 T03060239 51003
KSFB 231416Z 26010KT 10SM FEW025 30/24 A3001 RMK AO2 T03000239
KSFB 231408Z COR 26011KT 10SM CLR 30/24 A3001 RMK AO2 T03000239
KSFB 231353Z 28011KT 10SM CLR 30/24 A3001 RMK AO2 SLP161 T03000239
KSFB 231253Z VRB05KT 10SM CLR 28/25 A3001 RMK AO2 SLP162 T02830250
KSFB 231153Z 26004KT 10SM CLR 27/25 A3001 RMK AO2 SLP160 70002 T02670250 10267 20250 53015
KSFB 231151Z 25004KT 1 3/4SM BR CLR 27/25 A3001 RMK AO2
KSFB 231053Z 25006KT 10SM CLR 25/24 A2998 RMK AO2 SLP150 T02500239
KSFB 230953Z AUTO 22005KT 10SM CLR 25/24 A2996 RMK AO2 SLP145 T02500244
KSFB 230853Z AUTO 23007KT 10SM CLR 25/24 A2996 RMK AO2 SLP144 T02500244 56007
KSFB 230753Z AUTO 21004KT 10SM CLR 25/24 A2996 RMK AO2 SLP144 T02500239
KSFB 230653Z AUTO 19006KT 10SM CLR 25/24 A2997 RMK AO2 SLP146 T02500239
KSFB 230553Z AUTO 21005KT 5SM BR CLR 25/24 A2998 RMK AO2 SLP152 60000 T02500239 10256 20250 50001
KSFB 230453Z AUTO 18004KT 10SM CLR 25/23 A2999 RMK AO2 SLP155 T02500233 403440244
KSFB 230353Z AUTO 18004KT 10SM CLR 25/23 A3000 RMK AO2 SLP156 T02500233
KSFB 230253Z AUTO 17006KT 10SM CLR 26/23 A2998 RMK AO2 SLP151 60000 T02560233 53011
KSFB 230153Z 19004KT 10SM CLR 25/23 A2995 RMK AO2 SLP142 T02500233
KSFB 230053Z 17006KT 10SM CLR 26/24 A2994 RMK AO2 RAE23 TSE07 SLP138 P0000 T02560239
KSFB 230030Z 12005KT 10SM FEW065 FEW090 SCT110 25/23 A2994 RMK AO2 RAE23 TSE07 P0000 T02500233
KSFB 230013Z 14007KT 9SM VCTS -RA FEW090 SCT110 25/23 A2993 RMK AO2 LTG DSNT SE AND S TSE07 P0000 T02500233
KSFB 222353Z 12004KT 10SM -TSRA FEW090 25/22 A2995 RMK AO2 LTG DSNT E AND SE RAB03 TSE42B52 SLP140 P0002 60002 T02500222 10344 20244 50012
KSFB 222348Z VRB03KT 10SM VCTS -RA FEW044 SCT090 24/22 A2996 RMK AO2 LTG DSNT N AND E AND S RAB03 TSE42 P0002
KSFB 222253Z 05010KT 10SM TS FEW042 BKN060 BKN085 27/21 A2995 RMK AO2 PK WND 20026/2221 WSHFT 2211 LTG DSNT ALQDS TSB27 PRESRR SLP142 T02720206
KSFB 222227Z 19017G26KT 10SM TS SCT048 BKN065 BKN080 29/22 A2993 RMK AO2 PK WND 20026/2221 WSHFT 2211 LTG DSNT ALQDS TSB27 T02890217
KSFB 222153Z 25009KT 10SM VCTS SCT080 32/23 A2991 RMK AO2 LTG DSNT ALQDS SLP128 T03220233
KSFB 222053Z 29014KT 10SM VCTS FEW050 31/23 A2991 RMK AO2 LTG DSNT ALQDS SLP129 T03110228 55010
KSFB 222023Z 25007KT 10SM VCTS FEW055 33/23 A2990 RMK AO2 LTG DSNT ALQDS T03330228
KSFB 221953Z 26006KT 10SM SCT070 BKN090 34/22 A2991 RMK AO2 LTG DSNT NE SLP127 T03390222